sensor_id;sensor_type;location;lat;lon;timestamp;temperature;humidity
34877;DHT22;21086;44.780;17.194;2023-02-23T00:01:50;9.10;99.90
34877;DHT22;21086;44.780;17.194;2023-02-23T00:04:17;9.00;99.90
34877;DHT22;21086;44.780;17.194;2023-02-23T00:06:45;9.00;99.90
34877;DHT22;21086;44.780;17.194;2023-02-23T00:09:12;9.00;99.90
34877;DHT22;21086;44.780;17.194;2023-02-23T00:11:53;9.00;99.90
34877;DHT22;21086;44.780;17.194;2023-02-23T00:14:24;9.00;99.90
34877;DHT22;21086;44.780;17.194;2023-02-23T00:16:54;9.10;99.90
34877;DHT22;21086;44.780;17.194;2023-02-23T00:19:21;9.10;99.90
34877;DHT22;21086;44.780;17.194;2023-02-23T00:21:51;9.20;99.90
34877;DHT22;21086;44.780;17.194;2023-02-23T00:24:18;9.20;99.90
34877;DHT22;21086;44.780;17.194;2023-02-23T00:26:46;8.10;99.90
34877;DHT22;21086;44.780;17.194;2023-02-23T00:29:16;9.00;99.90
34877;DHT22;21086;44.780;17.194;2023-02-23T00:31:44;9.00;99.90
34877;DHT22;21086;44.780;17.194;2023-02-23T00:34:13;8.90;99.90
34877;DHT22;21086;44.780;17.194;2023-02-23T00:36:41;8.80;99.90
34877;DHT22;21086;44.780;17.194;2023-02-23T00:39:11;8.80;99.90
34877;DHT22;21086;44.780;17.194;2023-02-23T00:41:48;8.80;99.90
34877;DHT22;21086;44.780;17.194;2023-02-23T00:44:16;8.70;99.90
34877;DHT22;21086;44.780;17.194;2023-02-23T00:46:43;8.70;99.90
34877;DHT22;21086;44.780;17.194;2023-02-23T00:49:12;8.70;99.90
34877;DHT22;21086;44.780;17.194;2023-02-23T00:51:39;8.70;99.90
34877;DHT22;21086;44.780;17.194;2023-02-23T00:54:07;8.60;99.90
34877;DHT22;21086;44.780;17.194;2023-02-23T00:56:36;8.50;99.90
34877;DHT22;21086;44.780;17.194;2023-02-23T00:59:04;8.50;99.90
34877;DHT22;21086;44.780;17.194;2023-02-23T01:01:31;8.50;99.90
34877;DHT22;21086;44.780;17.194;2023-02-23T01:03:58;8.60;99.90
34877;DHT22;21086;44.780;17.194;2023-02-23T01:06:25;8.50;99.90
34877;DHT22;21086;44.780;17.194;2023-02-23T01:08:52;8.50;99.90
34877;DHT22;21086;44.780;17.194;2023-02-23T01:11:31;8.50;99.90
34877;DHT22;21086;44.780;17.194;2023-02-23T01:13:59;8.40;99.90
34877;DHT22;21086;44.780;17.194;2023-02-23T01:16:29;8.40;99.90
34877;DHT22;21086;44.780;17.194;2023-02-23T01:19:03;8.50;99.90
34877;DHT22;21086;44.780;17.194;2023-02-23T01:21:34;8.50;99.90
34877;DHT22;21086;44.780;17.194;2023-02-23T01:24:02;8.50;99.90
34877;DHT22;21086;44.780;17.194;2023-02-23T01:26:32;8.40;99.90
34877;DHT22;21086;44.780;17.194;2023-02-23T01:29:22;8.40;99.90
34877;DHT22;21086;44.780;17.194;2023-02-23T01:31:48;8.30;99.90
34877;DHT22;21086;44.780;17.194;2023-02-23T01:34:19;8.20;99.90
34877;DHT22;21086;44.780;17.194;2023-02-23T01:36:49;8.20;99.90
34877;DHT22;21086;44.780;17.194;2023-02-23T01:39:19;8.20;99.90
34877;DHT22;21086;44.780;17.194;2023-02-23T01:41:46;8.20;99.90
34877;DHT22;21086;44.780;17.194;2023-02-23T01:46:43;8.30;99.90
34877;DHT22;21086;44.780;17.194;2023-02-23T01:49:19;8.40;99.90
34877;DHT22;21086;44.780;17.194;2023-02-23T01:52:09;8.40;99.90
34877;DHT22;21086;44.780;17.194;2023-02-23T01:54:45;8.40;99.90
34877;DHT22;21086;44.780;17.194;2023-02-23T01:57:17;8.40;99.90
34877;DHT22;21086;44.780;17.194;2023-02-23T01:59:47;8.20;99.90
34877;DHT22;21086;44.780;17.194;2023-02-23T02:02:21;8.10;99.90
34877;DHT22;21086;44.780;17.194;2023-02-23T02:04:49;8.10;99.90
34877;DHT22;21086;44.780;17.194;2023-02-23T02:07:23;8.10;99.90
34877;DHT22;21086;44.780;17.194;2023-02-23T02:09:54;8.10;99.90
34877;DHT22;21086;44.780;17.194;2023-02-23T02:12:41;8.10;99.90
34877;DHT22;21086;44.780;17.194;2023-02-23T02:15:11;8.10;99.90
34877;DHT22;21086;44.780;17.194;2023-02-23T02:42:33;8.40;99.90
34877;DHT22;21086;44.780;17.194;2023-02-23T02:45:16;8.30;99.90
34877;DHT22;21086;44.780;17.194;2023-02-23T02:48:14;8.30;99.90
34877;DHT22;21086;44.780;17.194;2023-02-23T02:50:48;8.20;99.90
34877;DHT22;21086;44.780;17.194;2023-02-23T02:56:02;8.20;99.90
34877;DHT22;21086;44.780;17.194;2023-02-23T02:58:31;8.20;99.90
34877;DHT22;21086;44.780;17.194;2023-02-23T03:01:06;8.20;99.90
34877;DHT22;21086;44.780;17.194;2023-02-23T03:03:53;8.10;99.90
34877;DHT22;21086;44.780;17.194;2023-02-23T03:06:45;8.00;99.90
34877;DHT22;21086;44.780;17.194;2023-02-23T03:09:55;8.10;99.90
34877;DHT22;21086;44.780;17.194;2023-02-23T03:13:14;8.10;99.90
34877;DHT22;21086;44.780;17.194;2023-02-23T03:16:22;8.00;99.90
34877;DHT22;21086;44.780;17.194;2023-02-23T03:19:17;8.00;99.90
34877;DHT22;21086;44.780;17.194;2023-02-23T03:25:12;7.70;99.90
34877;DHT22;21086;44.780;17.194;2023-02-23T03:28:17;7.70;99.90
34877;DHT22;21086;44.780;17.194;2023-02-23T03:31:13;7.80;99.90
34877;DHT22;21086;44.780;17.194;2023-02-23T03:34:28;7.80;99.90
34877;DHT22;21086;44.780;17.194;2023-02-23T03:37:38;7.70;99.90
34877;DHT22;21086;44.780;17.194;2023-02-23T03:40:36;7.80;99.90
34877;DHT22;21086;44.780;17.194;2023-02-23T03:43:33;7.80;99.90
34877;DHT22;21086;44.780;17.194;2023-02-23T03:46:21;7.90;99.90
34877;DHT22;21086;44.780;17.194;2023-02-23T03:49:09;7.80;99.90
34877;DHT22;21086;44.780;17.194;2023-02-23T03:52:12;7.80;99.90
34877;DHT22;21086;44.780;17.194;2023-02-23T03:55:03;7.60;99.90
34877;DHT22;21086;44.780;17.194;2023-02-23T03:57:53;7.50;99.90
34877;DHT22;21086;44.780;17.194;2023-02-23T04:00:46;7.50;99.90
34877;DHT22;21086;44.780;17.194;2023-02-23T04:06:24;7.40;99.90
34877;DHT22;21086;44.780;17.194;2023-02-23T04:09:11;7.50;99.90
34877;DHT22;21086;44.780;17.194;2023-02-23T04:12:12;7.40;99.90
34877;DHT22;21086;44.780;17.194;2023-02-23T04:17:37;7.40;99.90
34877;DHT22;21086;44.780;17.194;2023-02-23T04:23:09;8.50;99.90
34877;DHT22;21086;44.780;17.194;2023-02-23T04:25:37;7.50;99.90
34877;DHT22;21086;44.780;17.194;2023-02-23T04:28:04;7.60;99.90
34877;DHT22;21086;44.780;17.194;2023-02-23T04:30:31;7.60;99.90
34877;DHT22;21086;44.780;17.194;2023-02-23T04:32:58;7.60;99.90
34877;DHT22;21086;44.780;17.194;2023-02-23T04:35:25;7.70;99.90
34877;DHT22;21086;44.780;17.194;2023-02-23T04:37:54;7.60;99.90
34877;DHT22;21086;44.780;17.194;2023-02-23T04:40:21;7.60;99.90
34877;DHT22;21086;44.780;17.194;2023-02-23T04:42:50;7.60;99.90
34877;DHT22;21086;44.780;17.194;2023-02-23T04:45:17;7.60;99.90
34877;DHT22;21086;44.780;17.194;2023-02-23T04:47:44;7.60;99.90
34877;DHT22;21086;44.780;17.194;2023-02-23T04:50:12;7.60;99.90
34877;DHT22;21086;44.780;17.194;2023-02-23T04:52:40;7.60;99.90
34877;DHT22;21086;44.780;17.194;2023-02-23T04:57:47;7.50;99.90
34877;DHT22;21086;44.780;17.194;2023-02-23T05:00:16;7.50;99.90
34877;DHT22;21086;44.780;17.194;2023-02-23T05:02:46;7.50;99.90
34877;DHT22;21086;44.780;17.194;2023-02-23T05:05:26;7.60;99.90
34877;DHT22;21086;44.780;17.194;2023-02-23T05:07:54;7.50;99.90
34877;DHT22;21086;44.780;17.194;2023-02-23T05:10:21;7.50;99.90
34877;DHT22;21086;44.780;17.194;2023-02-23T05:12:47;7.60;99.90
34877;DHT22;21086;44.780;17.194;2023-02-23T05:15:15;7.50;99.90
34877;DHT22;21086;44.780;17.194;2023-02-23T05:17:42;7.50;99.90
34877;DHT22;21086;44.780;17.194;2023-02-23T05:20:11;7.60;99.90
34877;DHT22;21086;44.780;17.194;2023-02-23T05:22:39;7.60;99.90
34877;DHT22;21086;44.780;17.194;2023-02-23T05:25:07;7.60;99.90
34877;DHT22;21086;44.780;17.194;2023-02-23T05:27:35;7.60;99.90
34877;DHT22;21086;44.780;17.194;2023-02-23T05:30:04;7.60;99.90
34877;DHT22;21086;44.780;17.194;2023-02-23T05:32:33;7.60;99.90
34877;DHT22;21086;44.780;17.194;2023-02-23T05:37:46;7.90;99.90
34877;DHT22;21086;44.780;17.194;2023-02-23T05:42:57;8.10;99.90
34877;DHT22;21086;44.780;17.194;2023-02-23T05:45:23;8.10;99.90
34877;DHT22;21086;44.780;17.194;2023-02-23T05:47:50;8.20;99.90
34877;DHT22;21086;44.780;17.194;2023-02-23T05:50:17;8.20;99.90
34877;DHT22;21086;44.780;17.194;2023-02-23T05:52:44;8.30;99.90
34877;DHT22;21086;44.780;17.194;2023-02-23T05:57:57;8.40;99.90
34877;DHT22;21086;44.780;17.194;2023-02-23T06:00:23;8.50;99.90
34877;DHT22;21086;44.780;17.194;2023-02-23T06:02:50;8.50;99.90
34877;DHT22;21086;44.780;17.194;2023-02-23T06:05:18;8.50;99.90
34877;DHT22;21086;44.780;17.194;2023-02-23T06:10:30;8.50;99.90
34877;DHT22;21086;44.780;17.194;2023-02-23T06:12:57;8.50;99.90
34877;DHT22;21086;44.780;17.194;2023-02-23T06:15:24;8.60;99.90
34877;DHT22;21086;44.780;17.194;2023-02-23T06:17:53;8.70;99.90
34877;DHT22;21086;44.780;17.194;2023-02-23T06:20:20;8.90;99.90
34877;DHT22;21086;44.780;17.194;2023-02-23T06:22:48;8.90;99.90
34877;DHT22;21086;44.780;17.194;2023-02-23T06:25:15;8.80;99.90
34877;DHT22;21086;44.780;17.194;2023-02-23T06:27:41;9.00;99.90
34877;DHT22;21086;44.780;17.194;2023-02-23T06:30:11;9.10;99.90
34877;DHT22;21086;44.780;17.194;2023-02-23T06:32:39;9.20;99.90
34877;DHT22;21086;44.780;17.194;2023-02-23T06:35:06;9.20;99.90
34877;DHT22;21086;44.780;17.194;2023-02-23T06:37:36;9.30;99.90
34877;DHT22;21086;44.780;17.194;2023-02-23T06:40:04;9.30;99.90
34877;DHT22;21086;44.780;17.194;2023-02-23T06:42:31;9.30;99.90
34877;DHT22;21086;44.780;17.194;2023-02-23T06:44:58;9.40;99.90
34877;DHT22;21086;44.780;17.194;2023-02-23T06:47:25;9.40;99.90
34877;DHT22;21086;44.780;17.194;2023-02-23T06:49:51;9.40;99.90
34877;DHT22;21086;44.780;17.194;2023-02-23T06:52:19;9.60;99.90
34877;DHT22;21086;44.780;17.194;2023-02-23T06:54:46;9.80;99.90
34877;DHT22;21086;44.780;17.194;2023-02-23T06:57:15;10.00;99.90
34877;DHT22;21086;44.780;17.194;2023-02-23T06:59:42;10.10;99.90
34877;DHT22;21086;44.780;17.194;2023-02-23T07:02:11;10.10;99.90
34877;DHT22;21086;44.780;17.194;2023-02-23T07:04:38;10.20;99.90
34877;DHT22;21086;44.780;17.194;2023-02-23T07:07:06;10.30;99.90
34877;DHT22;21086;44.780;17.194;2023-02-23T07:09:33;10.20;99.90
34877;DHT22;21086;44.780;17.194;2023-02-23T07:12:00;10.30;99.90
34877;DHT22;21086;44.780;17.194;2023-02-23T07:14:27;10.40;99.90
34877;DHT22;21086;44.780;17.194;2023-02-23T07:16:54;10.40;99.90
34877;DHT22;21086;44.780;17.194;2023-02-23T07:19:21;10.50;99.90
34877;DHT22;21086;44.780;17.194;2023-02-23T07:21:49;10.60;99.90
34877;DHT22;21086;44.780;17.194;2023-02-23T07:24:16;10.60;99.90
34877;DHT22;21086;44.780;17.194;2023-02-23T07:26:43;10.50;99.90
34877;DHT22;21086;44.780;17.194;2023-02-23T07:29:12;10.60;99.90
34877;DHT22;21086;44.780;17.194;2023-02-23T07:31:39;10.60;99.90
34877;DHT22;21086;44.780;17.194;2023-02-23T07:34:08;10.70;99.90
34877;DHT22;21086;44.780;17.194;2023-02-23T07:36:35;10.70;99.90
34877;DHT22;21086;44.780;17.194;2023-02-23T07:39:03;10.70;99.90
34877;DHT22;21086;44.780;17.194;2023-02-23T07:41:30;10.60;99.90
34877;DHT22;21086;44.780;17.194;2023-02-23T07:43:58;10.80;99.90
34877;DHT22;21086;44.780;17.194;2023-02-23T07:46:25;11.00;99.90
34877;DHT22;21086;44.780;17.194;2023-02-23T07:48:53;11.10;99.90
34877;DHT22;21086;44.780;17.194;2023-02-23T07:51:20;11.20;99.90
34877;DHT22;21086;44.780;17.194;2023-02-23T07:53:47;11.30;99.90
34877;DHT22;21086;44.780;17.194;2023-02-23T07:56:15;11.30;99.90
34877;DHT22;21086;44.780;17.194;2023-02-23T07:58:43;11.40;99.90
34877;DHT22;21086;44.780;17.194;2023-02-23T08:01:11;11.30;99.90
34877;DHT22;21086;44.780;17.194;2023-02-23T08:03:38;11.40;99.90
34877;DHT22;21086;44.780;17.194;2023-02-23T08:06:05;11.50;99.90
34877;DHT22;21086;44.780;17.194;2023-02-23T08:08:33;11.60;99.90
34877;DHT22;21086;44.780;17.194;2023-02-23T08:11:03;11.70;99.90
34877;DHT22;21086;44.780;17.194;2023-02-23T08:13:30;11.80;99.90
34877;DHT22;21086;44.780;17.194;2023-02-23T08:15:58;11.80;99.90
34877;DHT22;21086;44.780;17.194;2023-02-23T08:18:25;11.90;99.90
34877;DHT22;21086;44.780;17.194;2023-02-23T08:21:01;12.00;99.90
34877;DHT22;21086;44.780;17.194;2023-02-23T08:23:30;12.10;99.90
34877;DHT22;21086;44.780;17.194;2023-02-23T08:26:00;12.40;99.90
34877;DHT22;21086;44.780;17.194;2023-02-23T08:28:28;12.50;99.90
34877;DHT22;21086;44.780;17.194;2023-02-23T08:30:56;12.50;99.90
34877;DHT22;21086;44.780;17.194;2023-02-23T08:33:23;12.70;99.90
34877;DHT22;21086;44.780;17.194;2023-02-23T08:35:49;12.90;99.90
34877;DHT22;21086;44.780;17.194;2023-02-23T08:38:19;13.10;99.90
34877;DHT22;21086;44.780;17.194;2023-02-23T08:40:46;13.40;99.90
34877;DHT22;21086;44.780;17.194;2023-02-23T08:43:13;13.50;99.90
34877;DHT22;21086;44.780;17.194;2023-02-23T08:45:40;13.70;99.90
34877;DHT22;21086;44.780;17.194;2023-02-23T08:48:07;13.90;99.90
34877;DHT22;21086;44.780;17.194;2023-02-23T08:50:34;14.10;99.90
34877;DHT22;21086;44.780;17.194;2023-02-23T08:53:01;14.30;99.90
34877;DHT22;21086;44.780;17.194;2023-02-23T08:55:29;14.50;99.90
34877;DHT22;21086;44.780;17.194;2023-02-23T08:57:56;14.70;99.90
34877;DHT22;21086;44.780;17.194;2023-02-23T09:00:24;15.00;99.90
34877;DHT22;21086;44.780;17.194;2023-02-23T09:02:51;15.20;99.90
34877;DHT22;21086;44.780;17.194;2023-02-23T09:05:18;15.30;99.90
34877;DHT22;21086;44.780;17.194;2023-02-23T09:07:45;15.50;99.90
34877;DHT22;21086;44.780;17.194;2023-02-23T09:10:15;15.60;99.90
34877;DHT22;21086;44.780;17.194;2023-02-23T09:12:42;15.80;99.90
34877;DHT22;21086;44.780;17.194;2023-02-23T09:15:09;16.00;99.90
34877;DHT22;21086;44.780;17.194;2023-02-23T09:17:37;16.30;99.90
34877;DHT22;21086;44.780;17.194;2023-02-23T09:20:05;16.60;99.90
34877;DHT22;21086;44.780;17.194;2023-02-23T09:22:32;16.80;99.90
34877;DHT22;21086;44.780;17.194;2023-02-23T09:25:03;16.90;99.90
34877;DHT22;21086;44.780;17.194;2023-02-23T09:27:30;17.00;99.90
34877;DHT22;21086;44.780;17.194;2023-02-23T09:29:57;17.00;99.90
34877;DHT22;21086;44.780;17.194;2023-02-23T09:32:24;17.00;99.90
34877;DHT22;21086;44.780;17.194;2023-02-23T09:34:51;17.10;99.90
34877;DHT22;21086;44.780;17.194;2023-02-23T09:37:18;17.00;99.90
34877;DHT22;21086;44.780;17.194;2023-02-23T09:39:45;16.90;99.90
34877;DHT22;21086;44.780;17.194;2023-02-23T09:42:36;17.00;99.90
34877;DHT22;21086;44.780;17.194;2023-02-23T09:45:54;17.10;99.90
34877;DHT22;21086;44.780;17.194;2023-02-23T09:48:08;17.10;99.90
34877;DHT22;21086;44.780;17.194;2023-02-23T09:50:38;17.20;99.90
34877;DHT22;21086;44.780;17.194;2023-02-23T09:55:41;17.40;99.90
34877;DHT22;21086;44.780;17.194;2023-02-23T09:58:36;17.60;99.90
34877;DHT22;21086;44.780;17.194;2023-02-23T10:01:46;17.70;99.90
34877;DHT22;21086;44.780;17.194;2023-02-23T10:04:24;17.80;99.90
34877;DHT22;21086;44.780;17.194;2023-02-23T10:15:43;18.60;99.90
34877;DHT22;21086;44.780;17.194;2023-02-23T10:23:17;19.20;99.90
34877;DHT22;21086;44.780;17.194;2023-02-23T10:25:48;19.50;99.90
34877;DHT22;21086;44.780;17.194;2023-02-23T10:28:20;19.70;99.90
34877;DHT22;21086;44.780;17.194;2023-02-23T10:30:49;19.80;99.90
34877;DHT22;21086;44.780;17.194;2023-02-23T10:33:28;19.80;99.90
34877;DHT22;21086;44.780;17.194;2023-02-23T10:36:15;20.00;99.90
34877;DHT22;21086;44.780;17.194;2023-02-23T10:38:43;20.20;99.90
34877;DHT22;21086;44.780;17.194;2023-02-23T10:41:11;20.20;99.90
34877;DHT22;21086;44.780;17.194;2023-02-23T10:43:40;20.40;99.90
34877;DHT22;21086;44.780;17.194;2023-02-23T10:46:16;20.40;99.90
34877;DHT22;21086;44.780;17.194;2023-02-23T10:48:45;20.40;99.90
34877;DHT22;21086;44.780;17.194;2023-02-23T10:51:21;20.50;99.90
34877;DHT22;21086;44.780;17.194;2023-02-23T10:53:50;20.50;99.90
34877;DHT22;21086;44.780;17.194;2023-02-23T10:56:20;20.70;99.90
34877;DHT22;21086;44.780;17.194;2023-02-23T10:58:57;20.80;99.90
34877;DHT22;21086;44.780;17.194;2023-02-23T11:01:41;20.90;99.90
34877;DHT22;21086;44.780;17.194;2023-02-23T11:04:29;21.00;99.90
34877;DHT22;21086;44.780;17.194;2023-02-23T11:07:37;20.80;99.90
34877;DHT22;21086;44.780;17.194;2023-02-23T11:10:26;20.90;99.90
34877;DHT22;21086;44.780;17.194;2023-02-23T11:12:53;20.90;99.90
34877;DHT22;21086;44.780;17.194;2023-02-23T11:18:05;21.30;99.90
34877;DHT22;21086;44.780;17.194;2023-02-23T11:20:37;21.30;99.90
34877;DHT22;21086;44.780;17.194;2023-02-23T11:23:35;21.50;99.90
34877;DHT22;21086;44.780;17.194;2023-02-23T11:26:13;21.40;99.90
34877;DHT22;21086;44.780;17.194;2023-02-23T11:28:52;21.50;99.90
34877;DHT22;21086;44.780;17.194;2023-02-23T11:31:22;21.60;99.90
34877;DHT22;21086;44.780;17.194;2023-02-23T11:33:54;21.60;99.90
34877;DHT22;21086;44.780;17.194;2023-02-23T11:36:26;21.50;99.90
34877;DHT22;21086;44.780;17.194;2023-02-23T11:39:17;21.60;99.90
34877;DHT22;21086;44.780;17.194;2023-02-23T11:41:45;21.70;99.90
34877;DHT22;21086;44.780;17.194;2023-02-23T11:44:21;22.00;99.90
34877;DHT22;21086;44.780;17.194;2023-02-23T11:46:49;22.20;99.90
34877;DHT22;21086;44.780;17.194;2023-02-23T11:49:20;22.30;99.90
34877;DHT22;21086;44.780;17.194;2023-02-23T11:51:50;22.20;99.90
34877;DHT22;21086;44.780;17.194;2023-02-23T11:54:28;22.10;99.90
34877;DHT22;21086;44.780;17.194;2023-02-23T11:56:56;22.00;99.90
34877;DHT22;21086;44.780;17.194;2023-02-23T11:59:32;21.90;99.90
34877;DHT22;21086;44.780;17.194;2023-02-23T12:02:18;21.80;99.90
34877;DHT22;21086;44.780;17.194;2023-02-23T12:05:00;21.40;99.90
34877;DHT22;21086;44.780;17.194;2023-02-23T12:07:53;21.00;99.90
34877;DHT22;21086;44.780;17.194;2023-02-23T12:15:53;21.00;99.90
34877;DHT22;21086;44.780;17.194;2023-02-23T12:18:45;20.80;99.90
34877;DHT22;21086;44.780;17.194;2023-02-23T12:26:55;20.00;99.90
34877;DHT22;21086;44.780;17.194;2023-02-23T12:29:35;19.80;99.90
34877;DHT22;21086;44.780;17.194;2023-02-23T12:32:15;19.50;99.90
34877;DHT22;21086;44.780;17.194;2023-02-23T12:38:02;19.20;99.90
34877;DHT22;21086;44.780;17.194;2023-02-23T12:40:34;19.10;99.90
34877;DHT22;21086;44.780;17.194;2023-02-23T12:43:35;19.10;99.90
34877;DHT22;21086;44.780;17.194;2023-02-23T12:46:14;19.10;99.90
34877;DHT22;21086;44.780;17.194;2023-02-23T12:49:10;19.20;99.90
34877;DHT22;21086;44.780;17.194;2023-02-23T12:51:49;19.10;99.90
34877;DHT22;21086;44.780;17.194;2023-02-23T12:54:17;18.90;99.90
34877;DHT22;21086;44.780;17.194;2023-02-23T12:57:36;18.80;99.90
34877;DHT22;21086;44.780;17.194;2023-02-23T13:02:56;18.40;99.90
34877;DHT22;21086;44.780;17.194;2023-02-23T13:05:32;18.30;99.90
34877;DHT22;21086;44.780;17.194;2023-02-23T13:08:27;18.10;99.90
34877;DHT22;21086;44.780;17.194;2023-02-23T13:11:10;18.10;99.90
34877;DHT22;21086;44.780;17.194;2023-02-23T13:13:49;18.20;99.90
34877;DHT22;21086;44.780;17.194;2023-02-23T13:16:32;18.00;99.90
34877;DHT22;21086;44.780;17.194;2023-02-23T13:19:28;17.80;99.90
34877;DHT22;21086;44.780;17.194;2023-02-23T13:24:52;17.50;99.90
34877;DHT22;21086;44.780;17.194;2023-02-23T13:27:59;17.50;99.90
34877;DHT22;21086;44.780;17.194;2023-02-23T13:30:29;17.40;99.90
34877;DHT22;21086;44.780;17.194;2023-02-23T13:33:15;17.40;99.90
34877;DHT22;21086;44.780;17.194;2023-02-23T13:35:46;17.50;99.90
34877;DHT22;21086;44.780;17.194;2023-02-23T13:38:22;17.50;99.90
34877;DHT22;21086;44.780;17.194;2023-02-23T13:41:06;17.60;99.90
34877;DHT22;21086;44.780;17.194;2023-02-23T13:43:51;17.60;99.90
34877;DHT22;21086;44.780;17.194;2023-02-23T13:46:34;17.70;99.90
34877;DHT22;21086;44.780;17.194;2023-02-23T13:52:08;17.60;99.90
34877;DHT22;21086;44.780;17.194;2023-02-23T13:54:37;17.80;99.90
34877;DHT22;21086;44.780;17.194;2023-02-23T13:57:16;17.90;99.90
34877;DHT22;21086;44.780;17.194;2023-02-23T13:59:44;17.80;99.90
34877;DHT22;21086;44.780;17.194;2023-02-23T14:05:17;17.70;99.90
34877;DHT22;21086;44.780;17.194;2023-02-23T14:07:52;17.60;99.90
34877;DHT22;21086;44.780;17.194;2023-02-23T14:10:22;17.70;99.90
34877;DHT22;21086;44.780;17.194;2023-02-23T14:13:27;17.70;99.90
34877;DHT22;21086;44.780;17.194;2023-02-23T14:16:18;17.80;99.90
34877;DHT22;21086;44.780;17.194;2023-02-23T14:19:15;17.80;99.90
34877;DHT22;21086;44.780;17.194;2023-02-23T14:24:19;17.90;99.90
34877;DHT22;21086;44.780;17.194;2023-02-23T14:27:22;17.90;99.90
34877;DHT22;21086;44.780;17.194;2023-02-23T14:32:47;18.10;99.90
34877;DHT22;21086;44.780;17.194;2023-02-23T14:35:37;18.30;99.90
34877;DHT22;21086;44.780;17.194;2023-02-23T14:38:32;18.50;99.90
34877;DHT22;21086;44.780;17.194;2023-02-23T14:41:13;18.90;99.90
34877;DHT22;21086;44.780;17.194;2023-02-23T14:43:42;19.30;99.90
34877;DHT22;21086;44.780;17.194;2023-02-23T14:46:19;19.70;99.90
34877;DHT22;21086;44.780;17.194;2023-02-23T14:49:04;20.00;99.90
34877;DHT22;21086;44.780;17.194;2023-02-23T14:51:39;20.10;99.90
34877;DHT22;21086;44.780;17.194;2023-02-23T14:54:37;20.20;99.90
34877;DHT22;21086;44.780;17.194;2023-02-23T14:57:24;19.90;99.90
34877;DHT22;21086;44.780;17.194;2023-02-23T15:00:00;19.60;99.90
34877;DHT22;21086;44.780;17.194;2023-02-23T15:02:28;19.30;99.90
34877;DHT22;21086;44.780;17.194;2023-02-23T15:04:56;19.20;99.90
34877;DHT22;21086;44.780;17.194;2023-02-23T15:08:03;19.00;99.90
34877;DHT22;21086;44.780;17.194;2023-02-23T15:10:34;18.90;99.90
34877;DHT22;21086;44.780;17.194;2023-02-23T15:13:34;18.70;99.90
34877;DHT22;21086;44.780;17.194;2023-02-23T15:16:28;18.90;99.90
34877;DHT22;21086;44.780;17.194;2023-02-23T15:18:57;19.50;99.90
34877;DHT22;21086;44.780;17.194;2023-02-23T15:21:28;20.30;99.90
34877;DHT22;21086;44.780;17.194;2023-02-23T15:24:11;20.90;99.90
34877;DHT22;21086;44.780;17.194;2023-02-23T15:26:40;21.20;99.90
34877;DHT22;21086;44.780;17.194;2023-02-23T15:31:40;20.90;99.90
34877;DHT22;21086;44.780;17.194;2023-02-23T15:34:17;20.60;99.90
34877;DHT22;21086;44.780;17.194;2023-02-23T15:36:51;20.30;99.90
34877;DHT22;21086;44.780;17.194;2023-02-23T15:39:32;19.90;99.90
34877;DHT22;21086;44.780;17.194;2023-02-23T15:42:02;19.50;99.90
34877;DHT22;21086;44.780;17.194;2023-02-23T15:44:30;19.00;99.90
34877;DHT22;21086;44.780;17.194;2023-02-23T15:47:34;18.70;99.90
34877;DHT22;21086;44.780;17.194;2023-02-23T15:50:23;18.40;99.90
34877;DHT22;21086;44.780;17.194;2023-02-23T15:53:06;18.00;99.90
34877;DHT22;21086;44.780;17.194;2023-02-23T15:55:42;17.90;99.90
34877;DHT22;21086;44.780;17.194;2023-02-23T15:58:21;17.70;99.90
34877;DHT22;21086;44.780;17.194;2023-02-23T16:00:58;17.50;99.90
34877;DHT22;21086;44.780;17.194;2023-02-23T16:03:31;17.30;99.90
34877;DHT22;21086;44.780;17.194;2023-02-23T16:08:29;17.10;99.90
34877;DHT22;21086;44.780;17.194;2023-02-23T16:11:08;17.00;99.90
34877;DHT22;21086;44.780;17.194;2023-02-23T16:13:44;16.70;99.90
34877;DHT22;21086;44.780;17.194;2023-02-23T16:16:15;16.50;99.90
34877;DHT22;21086;44.780;17.194;2023-02-23T16:18:51;16.30;99.90
34877;DHT22;21086;44.780;17.194;2023-02-23T16:21:23;16.10;99.90
34877;DHT22;21086;44.780;17.194;2023-02-23T16:23:54;16.00;99.90
34877;DHT22;21086;44.780;17.194;2023-02-23T16:26:44;15.80;99.90
34877;DHT22;21086;44.780;17.194;2023-02-23T16:29:14;16.30;99.90
34877;DHT22;21086;44.780;17.194;2023-02-23T16:31:55;15.60;99.90
34877;DHT22;21086;44.780;17.194;2023-02-23T16:34:34;15.40;99.90
34877;DHT22;21086;44.780;17.194;2023-02-23T16:37:14;15.30;99.90
34877;DHT22;21086;44.780;17.194;2023-02-23T16:39:43;15.30;99.90
34877;DHT22;21086;44.780;17.194;2023-02-23T16:42:27;15.20;99.90
34877;DHT22;21086;44.780;17.194;2023-02-23T16:44:56;15.10;99.90
34877;DHT22;21086;44.780;17.194;2023-02-23T16:49:53;15.00;99.90
34877;DHT22;21086;44.780;17.194;2023-02-23T16:52:22;15.00;99.90
34877;DHT22;21086;44.780;17.194;2023-02-23T16:54:49;14.90;99.90
34877;DHT22;21086;44.780;17.194;2023-02-23T16:57:23;14.90;99.90
34877;DHT22;21086;44.780;17.194;2023-02-23T16:59:52;14.80;99.90
34877;DHT22;21086;44.780;17.194;2023-02-23T17:02:20;14.80;99.90
34877;DHT22;21086;44.780;17.194;2023-02-23T17:04:50;14.80;99.90
34877;DHT22;21086;44.780;17.194;2023-02-23T17:07:20;14.80;99.90
34877;DHT22;21086;44.780;17.194;2023-02-23T17:09:49;14.90;99.90
34877;DHT22;21086;44.780;17.194;2023-02-23T17:12:16;14.90;99.90
34877;DHT22;21086;44.780;17.194;2023-02-23T17:14:48;14.90;99.90
34877;DHT22;21086;44.780;17.194;2023-02-23T17:17:17;14.90;99.90
34877;DHT22;21086;44.780;17.194;2023-02-23T17:19:44;14.80;99.90
34877;DHT22;21086;44.780;17.194;2023-02-23T17:22:12;14.80;99.90
34877;DHT22;21086;44.780;17.194;2023-02-23T17:24:40;14.80;99.90
34877;DHT22;21086;44.780;17.194;2023-02-23T17:27:08;14.70;99.90
34877;DHT22;21086;44.780;17.194;2023-02-23T17:29:36;14.70;99.90
34877;DHT22;21086;44.780;17.194;2023-02-23T17:32:05;14.80;99.90
34877;DHT22;21086;44.780;17.194;2023-02-23T17:34:33;14.80;99.90
34877;DHT22;21086;44.780;17.194;2023-02-23T17:37:00;14.80;99.90
34877;DHT22;21086;44.780;17.194;2023-02-23T17:39:26;14.80;99.90
34877;DHT22;21086;44.780;17.194;2023-02-23T17:41:54;14.80;99.90
34877;DHT22;21086;44.780;17.194;2023-02-23T17:44:21;14.70;99.90
34877;DHT22;21086;44.780;17.194;2023-02-23T17:46:48;14.70;99.90
34877;DHT22;21086;44.780;17.194;2023-02-23T17:49:15;14.60;99.90
34877;DHT22;21086;44.780;17.194;2023-02-23T17:51:42;14.50;99.90
34877;DHT22;21086;44.780;17.194;2023-02-23T17:54:09;14.50;99.90
34877;DHT22;21086;44.780;17.194;2023-02-23T17:56:36;14.50;99.90
34877;DHT22;21086;44.780;17.194;2023-02-23T17:59:03;14.50;99.90
34877;DHT22;21086;44.780;17.194;2023-02-23T18:01:31;14.50;99.90